Time;durP1;ratioP1;P1;durP2;ratioP2;P2;SDS_P1;SDS_P2;PMS_P1;PMS_P2;Temp;Humidity;BMP_temperature;BMP_pressure;BME280_temperature;BME280_humidity;BME280_pressure;Samples;Min_cycle;Max_cycle;Signal;HPM_P1;HPM_P2
2021/12/20 00:01:28;;;;;;;14.20;10.63;;;9.40;99.90;;;;;;4981400;28;20199;-26
2021/12/20 00:03:55;;;;;;;17.77;11.27;;;9.40;99.90;;;;;;4984565;28;20227;-25
2021/12/20 00:06:22;;;;;;;19.63;11.67;;;9.50;99.90;;;;;;4982410;28;20302;-25
2021/12/20 00:08:52;;;;;;;16.97;10.90;;;9.50;99.90;;;;;;4970397;28;20213;-26
2021/12/20 00:11:19;;;;;;;20.17;12.00;;;9.40;99.90;;;;;;4970162;28;20226;-26
2021/12/20 00:13:49;;;;;;;17.30;11.33;;;9.50;99.90;;;;;;4971282;28;20218;-25
2021/12/20 00:16:19;;;;;;;17.67;11.77;;;9.40;99.90;;;;;;4981432;28;20619;-25
2021/12/20 00:18:48;;;;;;;14.90;10.70;;;9.40;99.90;;;;;;4970961;28;20290;-25
2021/12/20 00:21:15;;;;;;;19.63;11.57;;;9.40;99.90;;;;;;4970009;28;20199;-25
2021/12/20 00:23:47;;;;;;;16.93;11.67;;;9.40;99.90;;;;;;4970011;28;20811;-25
2021/12/20 00:26:17;;;;;;;17.57;11.87;;;9.40;99.90;;;;;;4973017;28;20325;-26
2021/12/20 00:28:44;;;;;;;18.17;11.03;;;9.40;99.90;;;;;;4970479;28;20538;-26
2021/12/20 00:31:14;;;;;;;17.80;10.97;;;9.40;99.90;;;;;;4969233;28;20238;-25
2021/12/20 00:33:43;;;;;;;16.53;11.10;;;9.40;99.90;;;;;;4969725;28;20562;-25
2021/12/20 00:36:21;;;;;;;18.93;11.50;;;9.40;99.90;;;;;;4970506;28;20218;-26
2021/12/20 00:41:37;;;;;;;20.10;11.57;;;9.40;99.90;;;;;;4969390;28;20233;-25
2021/12/20 00:44:07;;;;;;;17.80;10.70;;;9.40;99.90;;;;;;4971721;28;20627;-25
2021/12/20 00:46:53;;;;;;;16.90;10.97;;;9.40;99.90;;;;;;4979859;28;20317;-26
2021/12/20 00:49:20;;;;;;;19.37;11.40;;;9.40;99.90;;;;;;4984637;28;20928;-25
2021/12/20 00:51:49;;;;;;;23.87;12.23;;;9.40;99.90;;;;;;4969598;28;20608;-26
2021/12/20 00:54:16;;;;;;;20.27;11.67;;;9.40;99.90;;;;;;4972386;28;20194;-25
2021/12/20 00:56:46;;;;;;;15.27;10.90;;;9.40;99.90;;;;;;4976692;28;20209;-25
2021/12/20 00:59:16;;;;;;;19.13;11.83;;;9.40;99.90;;;;;;4975643;28;20225;-26
2021/12/20 01:01:43;;;;;;;20.50;11.97;;;9.40;99.90;;;;;;4970142;28;20203;-26
2021/12/20 01:04:13;;;;;;;19.10;11.57;;;9.40;99.90;;;;;;4967972;28;20633;-26
2021/12/20 01:06:47;;;;;;;20.07;11.40;;;9.40;99.90;;;;;;4969585;28;20331;-25
2021/12/20 01:09:15;;;;;;;17.93;11.47;;;9.40;99.90;;;;;;4972989;28;20664;-25
2021/12/20 01:11:43;;;;;;;17.87;11.33;;;9.40;99.90;;;;;;4967642;28;20660;-26
2021/12/20 01:14:12;;;;;;;18.33;10.83;;;9.40;99.90;;;;;;4969232;28;20303;-25
2021/12/20 01:16:41;;;;;;;19.43;11.17;;;9.40;99.90;;;;;;4969996;28;20196;-25
2021/12/20 01:19:08;;;;;;;17.33;11.47;;;9.40;99.90;;;;;;4970087;28;20239;-25
2021/12/20 01:21:36;;;;;;;20.10;11.87;;;9.40;99.90;;;;;;4969497;28;20209;-26
2021/12/20 01:24:03;;;;;;;17.97;11.57;;;9.40;99.90;;;;;;4979247;28;20293;-25
2021/12/20 01:26:30;;;;;;;15.07;10.50;;;9.30;99.90;;;;;;4980346;28;20305;-25
2021/12/20 01:29:00;;;;;;;15.93;11.77;;;9.40;99.90;;;;;;4976321;28;20584;-26
2021/12/20 01:31:27;;;;;;;15.23;10.67;;;9.40;99.90;;;;;;4988497;28;20725;-25
2021/12/20 01:33:54;;;;;;;18.80;10.73;;;9.30;99.90;;;;;;4980353;28;20575;-26
2021/12/20 01:36:22;;;;;;;16.63;10.97;;;9.30;99.90;;;;;;4970672;28;20238;-25
2021/12/20 01:38:51;;;;;;;16.27;10.90;;;9.30;99.90;;;;;;4970922;28;20221;-26
2021/12/20 01:41:24;;;;;;;18.27;11.20;;;9.30;99.90;;;;;;4987910;28;20221;-25
2021/12/20 01:43:54;;;;;;;18.47;10.83;;;9.30;99.90;;;;;;4986146;28;20578;-25
2021/12/20 01:46:23;;;;;;;15.70;10.20;;;9.30;99.90;;;;;;4976752;28;20301;-25
2021/12/20 01:48:52;;;;;;;17.20;9.37;;;9.30;99.90;;;;;;4970122;28;20548;-25
2021/12/20 01:54:05;;;;;;;17.93;9.57;;;9.30;99.90;;;;;;4973117;28;20218;-26
2021/12/20 01:56:38;;;;;;;16.33;9.97;;;9.30;99.90;;;;;;4986421;28;20205;-26
2021/12/20 01:59:07;;;;;;;13.07;9.23;;;9.30;99.90;;;;;;4972165;28;20450;-26
2021/12/20 02:01:34;;;;;;;16.83;9.70;;;9.30;99.90;;;;;;4982252;28;20198;-25
2021/12/20 02:04:06;;;;;;;14.63;9.60;;;9.30;99.90;;;;;;4981879;28;20203;-26
2021/12/20 02:06:40;;;;;;;14.83;9.67;;;9.30;99.90;;;;;;4991724;28;20700;-25
2021/12/20 02:09:13;;;;;;;14.40;9.27;;;9.30;99.90;;;;;;4974467;28;20677;-26
2021/12/20 02:11:43;;;;;;;14.77;9.43;;;9.30;99.90;;;;;;4985923;28;20222;-26
2021/12/20 02:14:13;;;;;;;12.67;9.20;;;9.30;99.90;;;;;;4986251;28;20594;-26
2021/12/20 02:16:41;;;;;;;13.93;9.83;;;9.30;99.90;;;;;;4972293;28;20202;-25
2021/12/20 02:19:15;;;;;;;15.27;9.47;;;9.30;99.90;;;;;;4980957;28;20285;-26
2021/12/20 02:21:44;;;;;;;16.33;9.70;;;9.30;99.90;;;;;;4974404;28;20717;-26
2021/12/20 02:24:13;;;;;;;14.50;10.30;;;9.30;99.90;;;;;;4980598;28;20210;-26
2021/12/20 02:26:40;;;;;;;12.33;9.23;;;9.30;99.90;;;;;;4978731;28;20214;-25
2021/12/20 02:29:10;;;;;;;12.30;9.20;;;9.30;99.90;;;;;;4971926;28;20203;-25
2021/12/20 02:37:28;;;;;;;15.60;9.80;;;9.30;99.90;;;;;;4971557;28;20219;-25
2021/12/20 02:39:55;;;;;;;15.33;8.97;;;9.30;99.90;;;;;;4967811;28;20673;-26
2021/12/20 02:42:31;;;;;;;12.03;9.07;;;9.20;99.90;;;;;;4971629;28;20206;-25
2021/12/20 02:47:38;;;;;;;13.00;8.33;;;9.30;99.90;;;;;;4979743;28;20205;-25
2021/12/20 02:50:10;;;;;;;15.03;9.33;;;9.30;99.90;;;;;;4986444;28;20288;-26
2021/12/20 02:52:38;;;;;;;13.50;9.70;;;9.30;99.90;;;;;;4983242;28;20843;-25
2021/12/20 02:55:07;;;;;;;16.83;9.70;;;9.30;99.90;;;;;;4977751;28;20297;-26
2021/12/20 02:57:35;;;;;;;17.10;8.93;;;9.30;99.90;;;;;;4983539;28;20257;-25
2021/12/20 03:00:08;;;;;;;15.20;9.43;;;9.30;99.90;;;;;;4976006;28;20199;-26
2021/12/20 03:02:36;;;;;;;11.83;8.73;;;9.30;99.90;;;;;;4989446;28;20553;-25
2021/12/20 03:05:07;;;;;;;12.57;8.37;;;9.30;99.90;;;;;;4974864;28;20198;-25
2021/12/20 03:07:42;;;;;;;16.97;9.37;;;9.30;99.90;;;;;;4971387;28;20203;-25
2021/12/20 03:10:10;;;;;;;13.83;9.00;;;9.30;99.90;;;;;;4971031;28;20269;-26
2021/12/20 03:12:37;;;;;;;12.67;8.60;;;9.30;99.90;;;;;;4971443;28;20218;-26
2021/12/20 03:15:15;;;;;;;13.80;7.97;;;9.30;99.90;;;;;;4978937;28;20202;-26
2021/12/20 03:17:43;;;;;;;13.63;9.03;;;9.30;99.90;;;;;;4993139;28;20301;-26
2021/12/20 03:20:14;;;;;;;12.90;8.60;;;9.30;99.90;;;;;;4973111;28;20211;-25
2021/12/20 03:22:43;;;;;;;14.50;7.73;;;9.30;99.90;;;;;;4971315;28;20203;-26
2021/12/20 03:25:13;;;;;;;13.87;8.70;;;9.30;99.90;;;;;;4970726;28;20294;-24
2021/12/20 03:27:43;;;;;;;15.00;8.60;;;9.30;99.90;;;;;;4971166;28;20266;-24
2021/12/20 03:30:13;;;;;;;12.53;7.77;;;9.30;99.90;;;;;;4977606;28;20301;-24
2021/12/20 03:32:40;;;;;;;10.70;7.30;;;9.30;99.90;;;;;;4988838;28;20230;-24
2021/12/20 03:35:10;;;;;;;12.50;8.03;;;9.30;99.90;;;;;;4985562;28;20210;-24
2021/12/20 03:37:41;;;;;;;12.83;8.13;;;9.20;99.90;;;;;;4988897;28;20301;-24
2021/12/20 03:40:09;;;;;;;13.30;7.90;;;9.20;99.90;;;;;;4970038;28;20206;-24
2021/12/20 03:42:41;;;;;;;11.10;7.23;;;9.30;99.90;;;;;;4988872;28;20210;-24
2021/12/20 03:45:10;;;;;;;14.00;7.87;;;9.20;99.90;;;;;;4972561;28;20578;-24
2021/12/20 03:47:37;;;;;;;14.73;8.23;;;9.20;99.90;;;;;;4973393;28;20218;-24
2021/12/20 03:50:05;;;;;;;10.73;7.03;;;9.20;99.90;;;;;;4970639;28;20205;-24
2021/12/20 03:52:32;;;;;;;12.10;6.47;;;9.20;99.90;;;;;;4973586;28;20242;-24
2021/12/20 03:55:01;;;;;;;12.23;6.60;;;9.20;99.90;;;;;;4968583;28;20238;-24
2021/12/20 03:57:31;;;;;;;12.30;6.60;;;9.20;99.90;;;;;;4973956;28;20222;-24
2021/12/20 03:59:58;;;;;;;11.33;6.60;;;9.20;99.90;;;;;;4974104;28;20203;-25
2021/12/20 04:02:27;;;;;;;11.83;6.40;;;9.20;99.90;;;;;;4983651;28;20208;-24
2021/12/20 04:04:56;;;;;;;9.93;5.73;;;9.20;99.90;;;;;;4990264;28;20688;-24
2021/12/20 04:07:26;;;;;;;9.90;5.77;;;9.20;99.90;;;;;;4977784;28;20293;-24
2021/12/20 04:15:06;;;;;;;10.33;5.33;;;9.10;99.90;;;;;;4978829;28;20292;-24
2021/12/20 04:17:36;;;;;;;8.40;4.70;;;9.10;99.90;;;;;;4976964;28;20557;-24
2021/12/20 04:20:03;;;;;;;6.60;4.50;;;9.10;99.90;;;;;;4971313;28;20207;-24
2021/12/20 04:22:31;;;;;;;7.73;4.70;;;9.10;99.90;;;;;;4979659;28;20304;-24
2021/12/20 04:25:00;;;;;;;8.73;4.70;;;9.10;99.90;;;;;;4982224;28;20690;-24
2021/12/20 04:27:27;;;;;;;7.67;4.57;;;9.10;99.90;;;;;;4978576;28;20677;-24
2021/12/20 04:29:57;;;;;;;8.47;4.40;;;9.10;99.90;;;;;;4984786;28;20293;-25
2021/12/20 04:32:24;;;;;;;7.47;4.00;;;9.00;99.90;;;;;;4983019;28;20333;-24
2021/12/20 04:34:56;;;;;;;12.93;4.47;;;9.10;99.90;;;;;;4979963;28;20577;-24
2021/12/20 04:37:26;;;;;;;8.83;3.90;;;9.10;99.90;;;;;;4974446;28;20202;-24
2021/12/20 04:39:53;;;;;;;7.30;3.80;;;9.00;99.90;;;;;;4988531;28;20226;-25
2021/12/20 04:42:20;;;;;;;9.77;3.80;;;9.00;99.90;;;;;;4977462;28;20266;-25
2021/12/20 04:44:47;;;;;;;10.17;3.57;;;9.00;99.90;;;;;;4978651;28;20221;-24
2021/12/20 04:47:15;;;;;;;8.00;3.60;;;9.00;99.90;;;;;;4989053;28;20209;-24
2021/12/20 04:49:42;;;;;;;11.87;3.67;;;8.90;99.90;;;;;;4973567;28;20213;-24
2021/12/20 04:52:09;;;;;;;10.63;3.17;;;8.90;99.90;;;;;;4967925;28;20249;-25
2021/12/20 04:54:40;;;;;;;13.87;3.93;;;8.90;99.90;;;;;;4971646;28;20202;-24
2021/12/20 04:57:07;;;;;;;10.77;3.17;;;8.80;99.90;;;;;;5003984;28;20203;-24
2021/12/20 04:59:35;;;;;;;13.90;3.00;;;8.80;99.90;;;;;;4972971;28;20203;-25
2021/12/20 05:02:05;;;;;;;11.03;3.10;;;8.80;99.90;;;;;;4975464;28;20545;-25
2021/12/20 05:04:33;;;;;;;11.13;3.20;;;8.80;99.90;;;;;;4990940;28;20713;-25
2021/12/20 05:07:02;;;;;;;15.57;3.30;;;8.80;99.90;;;;;;4969804;28;20226;-25
2021/12/20 05:09:37;;;;;;;15.73;3.03;;;8.70;99.90;;;;;;4968870;28;20195;-25
2021/12/20 05:12:14;;;;;;;10.03;2.50;;;8.70;99.90;;;;;;4976522;28;20565;-25
2021/12/20 05:14:44;;;;;;;9.90;2.60;;;8.70;99.90;;;;;;4973796;28;20206;-24
2021/12/20 05:17:13;;;;;;;9.67;2.47;;;8.70;99.90;;;;;;4969035;28;20317;-25
2021/12/20 05:19:42;;;;;;;10.13;2.70;;;8.70;99.90;;;;;;4969093;28;20205;-24
2021/12/20 05:22:12;;;;;;;14.33;2.40;;;8.70;99.90;;;;;;4970221;28;20631;-25
2021/12/20 05:24:39;;;;;;;9.63;2.40;;;8.70;99.90;;;;;;4968247;28;20199;-24
2021/12/20 05:27:09;;;;;;;11.83;2.80;;;8.60;99.90;;;;;;4969879;28;20207;-25
2021/12/20 05:29:37;;;;;;;12.70;3.20;;;8.60;99.90;;;;;;4969258;28;20195;-25
2021/12/20 05:32:06;;;;;;;12.97;2.87;;;8.60;99.90;;;;;;4970309;28;20662;-25
2021/12/20 05:34:36;;;;;;;8.53;2.30;;;8.60;99.90;;;;;;4969299;28;20696;-25
2021/12/20 05:37:03;;;;;;;12.63;2.70;;;8.60;99.90;;;;;;4979009;28;20733;-25
2021/12/20 05:39:33;;;;;;;15.07;2.60;;;8.60;99.90;;;;;;4968514;28;20222;-25
2021/12/20 05:42:00;;;;;;;10.10;2.30;;;8.60;99.90;;;;;;4969018;28;20759;-25
2021/12/20 05:44:30;;;;;;;18.67;2.83;;;8.60;99.90;;;;;;4982853;28;20198;-25
2021/12/20 05:46:57;;;;;;;11.50;2.30;;;8.60;99.90;;;;;;4975060;28;20194;-25
2021/12/20 05:49:24;;;;;;;8.93;2.00;;;8.60;99.90;;;;;;4969067;28;20221;-25
2021/12/20 05:51:54;;;;;;;13.80;2.27;;;8.60;99.90;;;;;;4968712;28;20324;-25
2021/12/20 05:54:24;;;;;;;13.40;2.83;;;8.60;99.90;;;;;;4978364;28;20213;-25
2021/12/20 05:56:56;;;;;;;18.67;2.80;;;8.60;99.90;;;;;;4978808;28;20215;-25
2021/12/20 05:59:23;;;;;;;14.10;2.70;;;8.60;99.90;;;;;;4978438;28;20206;-25
2021/12/20 06:01:53;;;;;;;16.47;3.10;;;8.60;99.90;;;;;;4975023;28;20206;-25
2021/12/20 06:04:22;;;;;;;15.37;2.77;;;8.60;99.90;;;;;;4970996;28;20317;-25
2021/12/20 06:06:50;;;;;;;14.43;2.67;;;8.60;99.90;;;;;;4972794;28;20670;-25
2021/12/20 06:09:17;;;;;;;16.67;3.00;;;8.60;99.90;;;;;;4970678;28;20206;-25
2021/12/20 06:11:44;;;;;;;15.83;2.50;;;8.60;99.90;;;;;;4971192;28;20206;-25
2021/12/20 06:14:11;;;;;;;14.73;2.83;;;8.60;99.90;;;;;;4971563;28;20617;-25
2021/12/20 06:16:38;;;;;;;12.37;2.63;;;8.60;99.90;;;;;;4971362;28;20209;-25
2021/12/20 06:19:06;;;;;;;15.40;2.87;;;8.60;99.90;;;;;;4974311;28;20688;-25
2021/12/20 06:21:33;;;;;;;12.97;2.80;;;8.60;99.90;;;;;;4977011;28;20655;-25
2021/12/20 06:24:03;;;;;;;15.73;2.97;;;8.60;99.90;;;;;;4976225;28;20213;-25
2021/12/20 06:26:32;;;;;;;12.40;2.63;;;8.60;99.90;;;;;;4972047;28;20690;-25
2021/12/20 06:29:00;;;;;;;9.23;2.30;;;8.60;99.90;;;;;;4983084;28;20504;-25
2021/12/20 06:31:27;;;;;;;13.77;3.10;;;8.60;99.90;;;;;;4980729;28;21247;-25
2021/12/20 06:33:55;;;;;;;15.73;2.90;;;8.60;99.90;;;;;;4990297;28;20234;-25
2021/12/20 06:36:26;;;;;;;11.83;2.80;;;8.60;99.90;;;;;;4983776;28;20294;-25
2021/12/20 06:38:56;;;;;;;21.90;3.33;;;8.60;99.90;;;;;;4975815;28;20206;-25
2021/12/20 06:41:25;;;;;;;16.93;3.27;;;8.60;99.90;;;;;;4971333;28;20593;-25
2021/12/20 06:43:52;;;;;;;17.20;3.20;;;8.60;99.90;;;;;;4972086;28;20213;-25
2021/12/20 06:46:21;;;;;;;12.00;2.97;;;8.60;99.90;;;;;;4972729;28;20206;-25
2021/12/20 06:48:48;;;;;;;14.47;3.07;;;8.60;99.90;;;;;;4973906;28;20705;-25
2021/12/20 06:51:15;;;;;;;13.30;3.10;;;8.60;99.90;;;;;;4971658;28;20214;-25
2021/12/20 06:53:43;;;;;;;15.17;2.97;;;8.60;99.90;;;;;;4971235;28;20597;-25
2021/12/20 06:56:12;;;;;;;14.43;2.90;;;8.60;99.90;;;;;;4969655;28;20600;-25
2021/12/20 06:58:40;;;;;;;11.40;3.00;;;8.60;99.90;;;;;;4972297;28;20512;-25
2021/12/20 07:01:09;;;;;;;13.27;2.47;;;8.60;99.90;;;;;;4988659;28;20206;-25
2021/12/20 07:03:38;;;;;;;16.73;3.23;;;8.50;99.90;;;;;;4973917;28;20207;-25
2021/12/20 07:06:07;;;;;;;15.27;3.13;;;8.50;99.90;;;;;;4972224;28;20305;-25
2021/12/20 07:08:34;;;;;;;13.07;3.17;;;8.50;99.90;;;;;;4981819;28;20210;-25
2021/12/20 07:11:01;;;;;;;13.83;2.70;;;8.50;99.90;;;;;;4979082;28;20211;-25
2021/12/20 07:13:29;;;;;;;10.53;2.73;;;8.50;99.90;;;;;;4989704;28;20253;-25
2021/12/20 07:15:56;;;;;;;12.17;2.80;;;8.50;99.90;;;;;;4972613;28;20227;-25
2021/12/20 07:18:26;;;;;;;14.27;3.03;;;8.50;99.90;;;;;;4982457;28;20222;-25
2021/12/20 07:20:53;;;;;;;14.90;3.87;;;8.50;99.90;;;;;;4974108;28;20747;-25
2021/12/20 07:23:23;;;;;;;8.07;2.50;;;8.50;99.90;;;;;;4980424;28;20309;-25
2021/12/20 07:25:51;;;;;;;14.30;2.87;;;8.50;99.90;;;;;;4974790;28;20289;-25
2021/12/20 07:28:20;;;;;;;12.53;3.07;;;8.50;99.90;;;;;;4971061;28;20299;-25
2021/12/20 07:30:49;;;;;;;17.60;2.87;;;8.50;99.90;;;;;;4969610;28;20693;-25
2021/12/20 07:33:19;;;;;;;19.20;3.50;;;8.50;99.90;;;;;;4975142;28;20228;-26
2021/12/20 07:35:46;;;;;;;15.30;3.23;;;8.50;99.90;;;;;;4974326;28;20203;-26
2021/12/20 07:38:14;;;;;;;16.80;3.77;;;8.50;99.90;;;;;;4970521;28;20302;-26
2021/12/20 07:40:47;;;;;;;17.80;3.53;;;8.50;99.90;;;;;;4972172;28;20235;-25
2021/12/20 07:43:16;;;;;;;10.50;3.00;;;8.50;99.90;;;;;;4970754;28;20203;-26
2021/12/20 07:45:47;;;;;;;13.20;3.50;;;8.50;99.90;;;;;;4973469;28;20608;-26
2021/12/20 07:48:16;;;;;;;15.50;3.47;;;8.50;99.90;;;;;;4982825;28;20593;-26
2021/12/20 07:50:45;;;;;;;13.20;3.10;;;8.50;99.90;;;;;;4979524;28;20226;-26
2021/12/20 07:53:13;;;;;;;14.73;3.53;;;8.50;99.90;;;;;;4973142;28;20239;-26
2021/12/20 07:55:43;;;;;;;11.93;3.60;;;8.50;99.90;;;;;;4977226;28;20586;-26
2021/12/20 07:58:10;;;;;;;20.73;3.80;;;8.50;99.90;;;;;;4973982;28;20218;-26
2021/12/20 08:00:38;;;;;;;14.43;3.83;;;8.50;99.90;;;;;;4983476;28;20526;-26
2021/12/20 08:03:09;;;;;;;15.17;3.33;;;8.50;99.90;;;;;;4987322;28;20221;-25
2021/12/20 08:05:36;;;;;;;13.37;3.20;;;8.50;99.90;;;;;;4975033;28;20580;-26
2021/12/20 08:08:04;;;;;;;14.87;3.40;;;8.50;99.90;;;;;;4977370;28;20227;-26
2021/12/20 08:10:32;;;;;;;15.57;3.57;;;8.50;99.90;;;;;;4973318;28;20736;-26
2021/12/20 08:13:05;;;;;;;14.77;4.00;;;8.50;99.90;;;;;;4991528;28;20274;-26
2021/12/20 08:15:33;;;;;;;15.43;3.90;;;8.50;99.90;;;;;;4977202;28;20211;-26
2021/12/20 08:18:00;;;;;;;12.73;3.23;;;8.50;99.90;;;;;;4980568;28;20213;-26
2021/12/20 08:20:29;;;;;;;23.63;3.97;;;8.50;99.90;;;;;;4985414;28;20616;-26
2021/12/20 08:22:57;;;;;;;11.20;3.40;;;8.50;99.90;;;;;;4970057;28;20261;-26
2021/12/20 08:25:24;;;;;;;13.77;3.50;;;8.50;99.90;;;;;;4970542;28;20249;-26
2021/12/20 08:27:52;;;;;;;15.37;3.63;;;8.50;99.90;;;;;;4977092;28;20203;-26
2021/12/20 08:30:22;;;;;;;17.47;3.80;;;8.50;99.90;;;;;;4985666;28;20317;-26
2021/12/20 08:32:50;;;;;;;18.00;3.50;;;8.50;99.90;;;;;;4986554;28;20214;-26
2021/12/20 08:35:20;;;;;;;21.73;3.97;;;8.50;99.90;;;;;;4989442;28;20206;-25
2021/12/20 08:37:47;;;;;;;14.57;3.63;;;8.60;99.90;;;;;;4976261;28;20261;-25
2021/12/20 08:40:16;;;;;;;19.50;4.37;;;8.50;99.90;;;;;;4980876;28;20663;-25
2021/12/20 08:42:44;;;;;;;15.63;3.50;;;8.50;99.90;;;;;;4983460;28;20210;-25
2021/12/20 08:45:14;;;;;;;19.73;3.97;;;8.60;99.90;;;;;;4977079;28;20300;-25
2021/12/20 08:47:44;;;;;;;12.43;3.07;;;8.60;99.90;;;;;;4974024;28;20199;-25
2021/12/20 08:50:15;;;;;;;18.50;4.23;;;8.60;99.90;;;;;;4989206;28;20207;-25
2021/12/20 08:52:45;;;;;;;14.27;3.93;;;8.60;99.90;;;;;;4979143;28;20788;-25
2021/12/20 08:55:12;;;;;;;12.97;3.30;;;8.60;99.90;;;;;;4969072;28;20771;-25
2021/12/20 08:57:43;;;;;;;17.93;4.30;;;8.60;99.90;;;;;;4970240;28;20207;-25
2021/12/20 09:00:15;;;;;;;16.43;3.93;;;8.60;99.90;;;;;;4967798;28;20207;-25
2021/12/20 09:02:42;;;;;;;16.13;3.73;;;8.60;99.90;;;;;;4973849;28;20206;-25
2021/12/20 09:05:10;;;;;;;15.43;3.00;;;8.60;99.90;;;;;;4975193;28;20609;-25
2021/12/20 09:07:40;;;;;;;12.97;3.20;;;8.70;99.90;;;;;;4980643;28;20222;-25
2021/12/20 09:10:14;;;;;;;18.67;5.10;;;8.70;99.90;;;;;;4979855;28;20202;-25
2021/12/20 09:12:42;;;;;;;14.33;3.23;;;8.70;99.90;;;;;;4973755;28;20676;-25
2021/12/20 09:15:15;;;;;;;17.13;3.50;;;8.70;99.90;;;;;;4972074;28;20741;-25
2021/12/20 09:17:48;;;;;;;15.30;3.20;;;8.70;99.90;;;;;;4969837;28;20307;-25
2021/12/20 09:20:21;;;;;;;17.63;3.27;;;8.70;99.90;;;;;;4971921;28;20233;-25
2021/12/20 09:22:53;;;;;;;16.17;3.83;;;8.70;99.90;;;;;;4969234;28;20203;-25
2021/12/20 09:25:26;;;;;;;17.13;3.77;;;8.70;99.90;;;;;;4971520;28;20592;-25
2021/12/20 09:27:55;;;;;;;13.10;3.57;;;8.70;99.90;;;;;;4969337;28;20617;-25
2021/12/20 09:30:27;;;;;;;16.83;3.67;;;8.70;99.90;;;;;;4985972;28;20732;-25
2021/12/20 09:33:04;;;;;;;15.57;3.83;;;8.80;99.90;;;;;;4980103;28;20225;-25
2021/12/20 09:35:32;;;;;;;18.43;3.53;;;8.80;99.90;;;;;;4985720;28;20253;-25
2021/12/20 09:38:00;;;;;;;17.60;3.60;;;8.80;99.90;;;;;;4979021;28;20211;-25
2021/12/20 09:40:37;;;;;;;17.90;4.10;;;8.80;99.90;;;;;;4982201;28;20700;-25
2021/12/20 09:43:10;;;;;;;12.10;3.47;;;8.80;99.90;;;;;;4968161;28;20198;-25
2021/12/20 09:45:40;;;;;;;15.63;4.00;;;8.80;99.90;;;;;;4967685;28;20226;-25
2021/12/20 09:48:09;;;;;;;16.73;3.90;;;8.80;99.90;;;;;;4970468;28;20677;-25
2021/12/20 09:50:41;;;;;;;20.00;3.60;;;8.80;99.90;;;;;;4973063;28;20206;-24
2021/12/20 09:53:09;;;;;;;15.60;4.53;;;8.80;99.90;;;;;;4968217;28;20284;-25
2021/12/20 09:55:36;;;;;;;17.93;4.37;;;8.80;99.90;;;;;;4972934;28;20233;-25
2021/12/20 09:58:05;;;;;;;12.53;3.63;;;8.80;99.90;;;;;;4970248;28;21130;-25
2021/12/20 10:00:33;;;;;;;16.60;3.93;;;8.80;99.90;;;;;;4973842;28;20229;-25
2021/12/20 10:03:04;;;;;;;13.73;3.80;;;8.80;99.90;;;;;;4973039;28;20211;-25
2021/12/20 10:05:32;;;;;;;13.23;3.23;;;8.80;99.90;;;;;;4969932;28;20282;-25
2021/12/20 10:08:09;;;;;;;16.27;3.77;;;8.90;99.90;;;;;;4971415;28;20211;-25
2021/12/20 10:10:41;;;;;;;20.57;4.23;;;8.90;99.90;;;;;;4973854;28;20213;-25
2021/12/20 10:13:22;;;;;;;18.93;4.60;;;8.90;99.90;;;;;;4971920;28;20297;-25
2021/12/20 10:15:54;;;;;;;16.33;3.50;;;8.90;99.90;;;;;;4980692;28;20302;-25
2021/12/20 10:18:21;;;;;;;16.37;4.23;;;8.90;99.90;;;;;;4976887;28;20894;-25
2021/12/20 10:20:56;;;;;;;18.83;4.20;;;8.90;99.90;;;;;;4972076;28;20292;-25
2021/12/20 10:23:29;;;;;;;15.07;3.63;;;8.90;99.90;;;;;;4971103;28;20215;-25
2021/12/20 10:26:13;;;;;;;17.90;4.37;;;8.90;99.90;;;;;;4970996;28;20222;-25
2021/12/20 10:28:44;;;;;;;15.53;4.33;;;8.90;99.90;;;;;;4975423;28;20253;-25
2021/12/20 10:31:14;;;;;;;15.47;4.07;;;8.90;99.90;;;;;;4975879;28;20209;-25
2021/12/20 10:34:03;;;;;;;17.00;3.63;;;8.90;99.90;;;;;;4973366;28;20225;-25
2021/12/20 10:36:32;;;;;;;16.50;4.13;;;8.90;99.90;;;;;;4970941;28;20677;-25
2021/12/20 10:39:03;;;;;;;15.33;3.93;;;8.90;99.90;;;;;;4971586;28;20724;-25
2021/12/20 10:41:35;;;;;;;24.33;4.80;;;8.90;99.90;;;;;;4975077;28;20207;-25
2021/12/20 10:44:19;;;;;;;19.00;4.50;;;8.90;99.90;;;;;;4985998;28;20219;-25
2021/12/20 10:46:52;;;;;;;18.77;4.20;;;8.90;99.90;;;;;;4984329;28;20822;-25
2021/12/20 10:49:26;;;;;;;15.67;4.03;;;8.90;99.90;;;;;;4988103;28;20285;-25
2021/12/20 10:51:56;;;;;;;20.07;4.33;;;8.90;99.90;;;;;;4991422;28;20240;-26
2021/12/20 10:54:31;;;;;;;17.90;4.37;;;8.90;99.90;;;;;;4990616;28;20751;-26
2021/12/20 10:57:01;;;;;;;16.40;4.20;;;8.90;99.90;;;;;;4978119;28;20768;-26
2021/12/20 10:59:37;;;;;;;13.77;3.50;;;9.00;99.90;;;;;;4971970;28;20227;-26
2021/12/20 11:05:25;;;;;;;15.00;4.17;;;9.00;99.90;;;;;;4972800;28;20210;-26
2021/12/20 11:11:10;;;;;;;16.80;4.13;;;9.00;99.90;;;;;;4970231;28;20760;-26
2021/12/20 11:13:39;;;;;;;14.27;4.07;;;9.00;99.90;;;;;;4975623;28;20276;-26
2021/12/20 11:16:33;;;;;;;13.60;3.63;;;9.00;99.90;;;;;;4973111;28;20334;-25
2021/12/20 11:19:06;;;;;;;15.03;4.10;;;9.00;99.90;;;;;;4974668;28;20282;-26
2021/12/20 11:21:44;;;;;;;16.67;4.30;;;9.10;99.90;;;;;;4975612;28;20684;-25
2021/12/20 11:24:16;;;;;;;10.47;3.00;;;9.10;99.90;;;;;;4971521;28;20719;-26
2021/12/20 11:26:46;;;;;;;16.07;3.90;;;9.10;99.90;;;;;;4961628;28;20338;-26
2021/12/20 11:29:13;;;;;;;14.63;3.27;;;9.10;99.90;;;;;;4973860;28;20229;-26
2021/12/20 11:31:41;;;;;;;15.73;3.87;;;9.10;99.90;;;;;;4973035;28;20218;-26
2021/12/20 11:34:08;;;;;;;16.83;3.90;;;9.10;99.90;;;;;;4964348;28;20232;-26
2021/12/20 11:36:39;;;;;;;25.30;4.67;;;9.10;99.90;;;;;;4975615;28;20206;-26
2021/12/20 11:39:07;;;;;;;19.63;3.60;;;9.10;99.90;;;;;;4974787;28;20202;-26
2021/12/20 11:41:35;;;;;;;9.97;3.67;;;9.10;99.90;;;;;;4975814;28;20209;-26
2021/12/20 11:44:05;;;;;;;14.97;3.33;;;9.10;99.90;;;;;;4974291;28;20665;-25
2021/12/20 11:46:55;;;;;;;12.83;3.17;;;9.20;99.90;;;;;;4977639;28;20654;-25
2021/12/20 11:49:26;;;;;;;9.63;2.53;;;9.20;99.90;;;;;;4973515;28;20689;-25
2021/12/20 11:52:02;;;;;;;18.43;4.67;;;9.20;99.90;;;;;;4971477;28;20245;-25
2021/12/20 11:54:43;;;;;;;12.07;3.03;;;9.20;99.90;;;;;;4970682;28;20253;-25
2021/12/20 11:57:28;;;;;;;16.47;3.23;;;9.20;99.90;;;;;;4975153;28;20744;-25
2021/12/20 12:00:19;;;;;;;11.57;2.63;;;9.20;99.90;;;;;;4984906;28;20677;-25
2021/12/20 12:02:51;;;;;;;12.73;2.47;;;9.20;99.90;;;;;;4974490;28;20679;-25
2021/12/20 12:05:31;;;;;;;11.70;2.83;;;9.20;99.90;;;;;;4983816;28;20264;-25
2021/12/20 12:08:25;;;;;;;11.17;2.27;;;9.20;99.90;;;;;;4978294;28;20236;-25
2021/12/20 12:11:16;;;;;;;8.27;2.73;;;9.20;99.90;;;;;;4976282;28;20214;-26
2021/12/20 12:13:45;;;;;;;14.83;2.93;;;9.20;99.90;;;;;;4976808;28;20215;-25
2021/12/20 12:16:31;;;;;;;12.37;2.57;;;9.20;99.90;;;;;;4975849;28;20211;-26
2021/12/20 12:19:02;;;;;;;11.97;2.70;;;9.20;99.90;;;;;;4986333;28;20219;-26
2021/12/20 12:21:33;;;;;;;12.30;2.97;;;9.10;99.90;;;;;;4979847;28;20669;-26
2021/12/20 12:24:16;;;;;;;11.07;2.53;;;9.10;99.90;;;;;;4969295;28;20256;-26
2021/12/20 12:26:47;;;;;;;14.73;2.87;;;9.10;99.90;;;;;;4977936;28;20547;-26
2021/12/20 12:29:24;;;;;;;10.07;2.93;;;9.10;99.90;;;;;;4981239;28;20340;-26
2021/12/20 12:31:56;;;;;;;10.63;2.80;;;9.20;99.90;;;;;;4989553;28;20523;-26
2021/12/20 12:34:45;;;;;;;12.93;3.07;;;9.20;99.90;;;;;;4988359;28;20218;-26
2021/12/20 12:37:36;;;;;;;9.33;2.77;;;9.20;99.90;;;;;;4973106;28;20213;-26
2021/12/20 12:40:27;;;;;;;15.13;3.00;;;9.10;99.90;;;;;;4977186;28;20911;-25
2021/12/20 12:42:57;;;;;;;17.27;3.10;;;9.10;99.90;;;;;;4969785;28;20625;-25
2021/12/20 12:45:46;;;;;;;13.33;3.10;;;9.10;99.90;;;;;;4957325;28;20219;-25
2021/12/20 12:48:40;;;;;;;9.87;2.63;;;9.20;99.90;;;;;;4989161;28;20208;-25
2021/12/20 12:51:19;;;;;;;11.77;2.77;;;9.20;99.90;;;;;;4986196;28;20728;-25
2021/12/20 12:53:54;;;;;;;14.40;3.20;;;9.20;99.90;;;;;;4986195;28;20612;-25
2021/12/20 12:56:27;;;;;;;7.63;2.63;;;9.20;99.90;;;;;;4969210;28;20202;-25
2021/12/20 12:59:16;;;;;;;8.67;2.53;;;9.20;99.90;;;;;;4969198;28;20955;-25
2021/12/20 13:01:46;;;;;;;11.60;2.87;;;9.20;99.90;;;;;;4969467;28;20318;-25
2021/12/20 13:04:16;;;;;;;11.83;2.53;;;9.20;99.90;;;;;;4970754;28;20311;-25
2021/12/20 13:06:45;;;;;;;10.73;2.60;;;9.20;99.90;;;;;;4984826;28;20215;-24
2021/12/20 13:09:14;;;;;;;15.00;3.20;;;9.20;99.90;;;;;;4984007;28;20206;-25
2021/12/20 13:11:41;;;;;;;9.30;2.77;;;9.20;99.90;;;;;;4981798;28;20218;-25
2021/12/20 13:14:18;;;;;;;12.03;3.00;;;9.20;99.90;;;;;;4969072;28;20347;-25
2021/12/20 13:16:56;;;;;;;10.07;3.30;;;9.20;99.90;;;;;;4969553;28;20214;-25
2021/12/20 13:19:29;;;;;;;12.17;2.33;;;9.20;99.90;;;;;;4969784;28;20202;-25
2021/12/20 13:22:00;;;;;;;12.23;2.47;;;9.20;99.90;;;;;;4979900;28;20554;-25
2021/12/20 13:24:28;;;;;;;12.13;2.57;;;9.20;99.90;;;;;;4971522;28;20211;-25
2021/12/20 13:27:08;;;;;;;7.40;2.07;;;9.10;99.90;;;;;;4975790;28;20572;-25
2021/12/20 13:29:35;;;;;;;11.00;2.50;;;9.10;99.90;;;;;;4969176;28;20241;-25